createdAt,value
2018-10-21T00:00:50.622Z,24.50
2018-10-21T00:03:24.976Z,22.93
2018-10-21T00:05:59.344Z,22.23
2018-10-21T00:08:33.637Z,26.90
2018-10-21T00:11:07.917Z,22.57
2018-10-21T00:13:42.272Z,29.07
2018-10-21T00:16:16.576Z,29.87
2018-10-21T00:18:50.959Z,27.83
2018-10-21T00:21:25.195Z,25.13
2018-10-21T00:23:59.761Z,24.63
2018-10-21T00:26:34.132Z,25.88
2018-10-21T00:29:08.440Z,25.27
2018-10-21T00:31:42.821Z,27.20
2018-10-21T00:34:17.031Z,28.23
2018-10-21T00:36:51.205Z,23.07
2018-10-21T00:39:25.495Z,25.00
2018-10-21T00:41:59.806Z,29.97
2018-10-21T00:44:34.118Z,25.53
2018-10-21T00:47:08.462Z,29.87
2018-10-21T00:49:43.661Z,24.33
2018-10-21T00:52:18.002Z,28.03
2018-10-21T00:54:52.540Z,24.57
2018-10-21T00:57:26.745Z,24.77
2018-10-21T01:00:01.064Z,28.00
2018-10-21T01:02:35.192Z,32.53
2018-10-21T01:05:11.001Z,33.53
2018-10-21T01:07:45.286Z,28.13
2018-10-21T01:10:19.997Z,25.90
2018-10-21T01:12:54.612Z,28.27
2018-10-21T01:15:29.870Z,26.23
2018-10-21T01:18:06.646Z,25.33
2018-10-21T01:20:41.117Z,29.33
2018-10-21T01:23:15.368Z,33.93
2018-10-21T01:25:49.659Z,34.17
2018-10-21T01:28:24.738Z,31.40
2018-10-21T01:30:59.845Z,32.27
2018-10-21T01:33:34.902Z,28.90
2018-10-21T01:36:09.225Z,32.83
2018-10-21T01:38:43.607Z,35.57
2018-10-21T01:41:17.872Z,32.43
2018-10-21T01:43:52.427Z,36.17
2018-10-21T01:46:27.225Z,38.20
2018-10-21T01:49:01.622Z,33.13
2018-10-21T01:51:36.116Z,36.97
2018-10-21T01:54:11.359Z,33.73
2018-10-21T01:56:46.852Z,32.47
2018-10-21T01:59:21.048Z,37.83
2018-10-21T02:01:55.756Z,35.73
2018-10-21T02:04:31.099Z,32.80
2018-10-21T02:07:05.503Z,37.57
2018-10-21T02:09:39.856Z,37.43
2018-10-21T02:12:15.583Z,35.90
2018-10-21T02:14:49.969Z,36.87
2018-10-21T02:17:24.333Z,35.00
2018-10-21T02:19:58.648Z,38.47
2018-10-21T02:22:34.025Z,38.27
2018-10-21T02:25:08.532Z,37.43
2018-10-21T02:27:43.744Z,39.17
2018-10-21T02:30:20.289Z,38.73
2018-10-21T02:32:55.033Z,39.30
2018-10-21T02:35:29.438Z,45.90
2018-10-21T02:38:03.813Z,49.37
2018-10-21T02:41:47.224Z,44.50
2018-10-21T02:44:22.200Z,38.17
2018-10-21T02:46:58.254Z,42.13
2018-10-21T02:49:32.448Z,39.60
2018-10-21T02:52:08.872Z,37.90
2018-10-21T02:54:43.719Z,44.63
2018-10-21T02:57:18.074Z,41.47
2018-10-21T02:59:53.372Z,41.40
2018-10-21T03:02:27.734Z,40.90
2018-10-21T03:05:02.151Z,46.43
2018-10-21T03:07:36.546Z,51.20
2018-10-21T03:10:10.788Z,40.63
2018-10-21T03:12:45.266Z,42.63
2018-10-21T03:15:19.534Z,41.63
2018-10-21T03:17:53.812Z,39.40
2018-10-21T03:20:28.156Z,43.30
2018-10-21T03:23:02.540Z,44.57
2018-10-21T03:25:37.384Z,44.13
2018-10-21T03:28:11.617Z,38.93
2018-10-21T03:30:45.972Z,42.97
2018-10-21T03:33:20.428Z,42.63
2018-10-21T03:35:54.577Z,42.97
2018-10-21T03:38:29.054Z,49.70
2018-10-21T03:41:03.292Z,46.00
2018-10-21T03:43:37.599Z,45.33
2018-10-21T03:46:13.238Z,47.93
2018-10-21T03:48:47.571Z,56.40
2018-10-21T03:51:23.040Z,48.47
2018-10-21T03:53:58.161Z,50.60
2018-10-21T03:56:32.401Z,50.00
2018-10-21T03:59:07.364Z,46.47
2018-10-21T04:01:41.673Z,46.93
2018-10-21T04:04:16.250Z,45.63
2018-10-21T04:06:53.128Z,46.43
2018-10-21T04:09:27.560Z,48.00
2018-10-21T04:12:01.873Z,48.80
2018-10-21T04:14:36.176Z,55.43
2018-10-21T04:17:11.368Z,48.07
2018-10-21T04:19:45.635Z,52.77
2018-10-21T04:22:20.005Z,53.10
2018-10-21T04:24:54.324Z,47.67
2018-10-21T04:27:28.680Z,52.00
2018-10-21T04:30:03.696Z,55.27
2018-10-21T04:32:42.293Z,56.63
2018-10-21T04:35:18.636Z,51.17
2018-10-21T04:38:34.341Z,52.10
2018-10-21T04:41:08.517Z,57.08
2018-10-21T04:43:43.296Z,55.73
2018-10-21T04:46:18.348Z,49.40
2018-10-21T04:48:52.589Z,56.73
2018-10-21T04:51:26.857Z,59.85
2018-10-21T04:54:01.589Z,50.70
2018-10-21T04:56:35.748Z,52.25
2018-10-21T04:59:10.068Z,52.62
2018-10-21T05:01:45.177Z,54.37
2018-10-21T05:04:19.368Z,54.40
2018-10-21T05:06:54.055Z,64.43
2018-10-21T05:09:28.336Z,52.75
2018-10-21T05:12:02.637Z,46.63
2018-10-21T05:14:36.969Z,62.77
2018-10-21T05:17:12.037Z,47.73
2018-10-21T05:19:46.835Z,55.57
2018-10-21T05:22:21.320Z,43.60
2018-10-21T05:24:55.805Z,50.80
2018-10-21T05:27:30.038Z,49.10
2018-10-21T05:30:05.012Z,56.13
2018-10-21T05:32:39.383Z,53.80
2018-10-21T05:35:14.595Z,51.53
2018-10-21T05:37:48.956Z,55.87
2018-10-21T05:40:23.491Z,50.60
2018-10-21T05:42:57.781Z,48.10
2018-10-21T05:45:32.156Z,47.53
2018-10-21T05:48:06.412Z,68.93
2018-10-21T05:53:21.432Z,50.93
2018-10-21T05:55:56.125Z,52.00
2018-10-21T05:58:30.650Z,57.80
2018-10-21T06:01:04.912Z,56.70
2018-10-21T06:03:39.282Z,52.87
2018-10-21T06:06:13.658Z,57.40
2018-10-21T06:08:47.853Z,51.20
2018-10-21T06:11:22.681Z,51.87
2018-10-21T06:13:57.074Z,52.53
2018-10-21T06:16:35.939Z,58.23
2018-10-21T06:19:12.897Z,50.40
2018-10-21T06:21:47.138Z,52.70
2018-10-21T06:24:21.860Z,51.83
2018-10-21T06:26:56.196Z,48.50
2018-10-21T06:29:30.406Z,51.00
2018-10-21T06:32:04.918Z,67.33
2018-10-21T06:34:39.312Z,46.00
2018-10-21T06:37:13.668Z,49.80
2018-10-21T06:39:49.001Z,47.97
2018-10-21T06:42:23.496Z,47.40
2018-10-21T06:44:58.348Z,51.83
2018-10-21T06:47:32.624Z,54.20
2018-10-21T06:50:09.279Z,51.30
2018-10-21T06:52:44.214Z,52.63
2018-10-21T06:55:18.648Z,52.00
2018-10-21T06:57:53.039Z,49.83
2018-10-21T07:00:28.133Z,48.87
2018-10-21T07:03:02.748Z,44.00
2018-10-21T07:06:16.763Z,48.87
2018-10-21T07:08:52.338Z,51.43
2018-10-21T07:11:27.665Z,51.63
2018-10-21T07:14:02.137Z,41.50
2018-10-21T07:16:36.516Z,38.10
2018-10-21T07:19:10.589Z,37.00
2018-10-21T07:21:44.997Z,38.80
2018-10-21T07:24:19.284Z,35.87
2018-10-21T07:26:54.621Z,36.60
2018-10-21T07:29:30.064Z,43.43
2018-10-21T07:32:04.657Z,41.93
2018-10-21T07:34:38.950Z,36.50
2018-10-21T07:37:13.363Z,43.47
2018-10-21T07:39:47.684Z,37.60
2018-10-21T07:42:22.210Z,36.50
2018-10-21T07:44:57.878Z,37.50
2018-10-21T07:47:32.374Z,41.67
2018-10-21T07:50:06.857Z,36.37
2018-10-21T07:52:41.243Z,37.77
2018-10-21T07:55:17.568Z,43.30
2018-10-21T07:57:51.701Z,40.33
2018-10-21T08:00:26.237Z,43.30
2018-10-21T08:03:00.528Z,42.10
2018-10-21T08:05:46.164Z,39.40
2018-10-21T08:08:22.566Z,41.73
2018-10-21T08:10:56.965Z,41.30
2018-10-21T08:13:31.221Z,38.00
2018-10-21T08:16:05.715Z,44.03
2018-10-21T08:18:40.609Z,42.33
2018-10-21T08:21:15.071Z,38.93
2018-10-21T08:23:54.745Z,42.47
2018-10-21T08:26:29.060Z,37.63
2018-10-21T08:29:04.505Z,40.30
2018-10-21T08:31:39.246Z,39.17
2018-10-21T08:34:13.811Z,38.73
2018-10-21T08:36:51.444Z,44.83
2018-10-21T08:39:25.756Z,36.63
2018-10-21T08:42:00.186Z,39.80
2018-10-21T08:44:34.400Z,38.90
2018-10-21T08:47:08.921Z,37.50
2018-10-21T08:49:43.703Z,39.83
2018-10-21T08:52:18.220Z,48.63
2018-10-21T08:54:52.801Z,41.60
2018-10-21T08:57:27.301Z,39.40
2018-10-21T09:00:01.563Z,40.40
2018-10-21T09:02:36.172Z,41.67
2018-10-21T09:05:12.091Z,44.70
2018-10-21T09:07:46.701Z,38.80
2018-10-21T09:10:21.295Z,39.50
2018-10-21T09:12:55.518Z,45.40
2018-10-21T09:15:29.863Z,38.63
2018-10-21T09:18:04.645Z,38.67
2018-10-21T09:20:39.047Z,38.57
2018-10-21T09:23:15.196Z,38.20
2018-10-21T09:25:50.099Z,40.00
2018-10-21T09:28:24.460Z,46.10
2018-10-21T09:30:59.127Z,40.60
2018-10-21T09:33:33.377Z,34.97
2018-10-21T09:36:07.766Z,38.77
2018-10-21T09:38:42.861Z,36.37
2018-10-21T09:41:17.249Z,33.97
2018-10-21T09:43:51.614Z,33.93
2018-10-21T09:46:25.812Z,30.77
2018-10-21T09:49:00.219Z,34.57
2018-10-21T09:51:35.060Z,35.07
2018-10-21T09:54:09.934Z,34.87
2018-10-21T09:56:44.404Z,31.53
2018-10-21T09:59:18.741Z,34.93
2018-10-21T10:01:58.679Z,36.73
2018-10-21T10:04:33.165Z,34.83
2018-10-21T10:07:07.932Z,37.93
2018-10-21T10:09:42.093Z,34.10
2018-10-21T10:12:17.180Z,33.43
2018-10-21T10:14:51.731Z,32.90
2018-10-21T10:17:26.162Z,32.07
2018-10-21T10:20:00.574Z,34.30
2018-10-21T10:22:35.017Z,31.33
2018-10-21T10:25:10.413Z,34.70
2018-10-21T10:27:45.676Z,31.63
2018-10-21T10:30:21.190Z,33.27
2018-10-21T10:33:01.089Z,29.90
2018-10-21T10:35:35.621Z,31.07
2018-10-21T10:38:09.997Z,26.00
2018-10-21T10:40:44.641Z,25.63
2018-10-21T10:43:20.504Z,26.77
2018-10-21T10:45:54.923Z,25.67
2018-10-21T10:48:29.694Z,26.77
2018-10-21T10:51:04.380Z,27.13
2018-10-21T10:53:38.903Z,24.07
2018-10-21T10:56:13.389Z,25.50
2018-10-21T10:58:48.114Z,25.97
2018-10-21T11:01:22.616Z,23.80
2018-10-21T11:03:57.130Z,25.17
2018-10-21T11:06:31.455Z,28.10
2018-10-21T11:09:08.100Z,24.80
2018-10-21T11:11:42.344Z,24.70
2018-10-21T11:14:20.659Z,24.93
2018-10-21T11:16:55.089Z,27.57
2018-10-21T11:19:29.469Z,24.97
2018-10-21T11:22:03.848Z,26.77
2018-10-21T11:24:49.087Z,24.67
2018-10-21T11:27:24.788Z,19.43
2018-10-21T11:29:59.280Z,20.87
2018-10-21T11:32:34.320Z,19.90
2018-10-21T11:35:08.574Z,22.70
2018-10-21T11:37:42.946Z,23.37
2018-10-21T11:40:17.337Z,23.50
2018-10-21T11:42:52.153Z,21.77
2018-10-21T11:45:27.539Z,18.93
2018-10-21T11:48:02.003Z,18.17
2018-10-21T11:50:36.450Z,16.90
2018-10-21T11:53:11.889Z,14.60
2018-10-21T11:55:46.177Z,13.70
2018-10-21T11:58:20.737Z,17.90
2018-10-21T12:00:56.550Z,16.87
2018-10-21T12:03:30.876Z,21.33
2018-10-21T12:06:06.124Z,17.07
2018-10-21T12:08:40.471Z,17.03
2018-10-21T12:11:15.178Z,16.17
2018-10-21T12:13:51.384Z,13.83
2018-10-21T12:16:27.883Z,14.90
2018-10-21T12:19:02.358Z,14.37
2018-10-21T12:21:36.970Z,14.50
2018-10-21T12:24:11.297Z,14.37
2018-10-21T12:26:45.633Z,11.30
2018-10-21T12:29:22.159Z,12.10
2018-10-21T12:31:57.676Z,12.83
2018-10-21T12:34:31.933Z,14.10
2018-10-21T12:37:06.220Z,16.20
2018-10-21T12:39:40.573Z,14.93
2018-10-21T12:42:16.526Z,12.90
2018-10-21T12:44:50.960Z,11.47
2018-10-21T12:47:25.262Z,19.00
2018-10-21T12:49:59.700Z,12.50
2018-10-21T12:52:34.199Z,12.27
2018-10-21T12:55:09.450Z,11.20
2018-10-21T12:57:46.108Z,15.87
2018-10-21T13:00:20.800Z,13.17
2018-10-21T13:02:56.708Z,13.73
2018-10-21T13:05:31.091Z,13.60
2018-10-21T13:08:05.548Z,14.77
2018-10-21T13:10:40.168Z,17.23
2018-10-21T13:13:15.178Z,15.33
2018-10-21T13:15:50.403Z,13.77
2018-10-21T13:18:24.937Z,20.57
2018-10-21T13:21:01.554Z,17.77
2018-10-21T13:23:37.238Z,15.83
2018-10-21T13:26:11.478Z,15.07
2018-10-21T13:31:26.742Z,14.40
2018-10-21T13:34:09.083Z,13.27
2018-10-21T13:36:43.533Z,11.90
2018-10-21T13:39:18.040Z,15.23
2018-10-21T13:41:55.075Z,11.47
2018-10-21T13:44:31.099Z,12.47
2018-10-21T13:47:06.022Z,11.17
2018-10-21T13:49:41.003Z,12.47
2018-10-21T13:52:15.416Z,11.57
2018-10-21T13:54:49.524Z,11.03
2018-10-21T13:57:25.218Z,10.30
2018-10-21T13:59:59.759Z,9.90
2018-10-21T14:02:34.284Z,10.00
2018-10-21T14:05:09.035Z,9.40
2018-10-21T14:07:43.393Z,10.07
2018-10-21T14:10:18.009Z,11.10
2018-10-21T14:12:52.777Z,10.73
2018-10-21T14:15:27.713Z,10.57
2018-10-21T14:18:02.489Z,11.12
2018-10-21T14:20:38.336Z,11.13
2018-10-21T14:23:12.922Z,11.33
2018-10-21T14:25:49.606Z,10.93
2018-10-21T14:28:25.966Z,10.73
2018-10-21T14:31:00.438Z,11.83
2018-10-21T14:33:36.109Z,12.23
2018-10-21T14:36:11.369Z,11.60
2018-10-21T14:38:46.846Z,11.97
2018-10-21T14:41:21.845Z,12.07
2018-10-21T14:43:58.017Z,11.67
2018-10-21T14:46:36.567Z,9.50
2018-10-21T14:49:11.026Z,10.93
2018-10-21T14:51:46.282Z,13.37
2018-10-21T14:54:22.740Z,12.67
2018-10-21T14:57:00.301Z,11.97
2018-10-21T14:59:42.426Z,12.73
2018-10-21T15:03:24.365Z,10.60
2018-10-21T15:06:00.550Z,10.73
2018-10-21T15:08:35.142Z,13.20
2018-10-21T15:11:21.921Z,9.97
2018-10-21T15:13:58.949Z,10.00
2018-10-21T15:16:34.489Z,8.63
2018-10-21T15:19:09.306Z,9.80
2018-10-21T15:21:48.990Z,8.77
2018-10-21T15:24:24.429Z,10.90
2018-10-21T15:29:44.112Z,8.87
2018-10-21T15:32:22.141Z,10.60
2018-10-21T15:34:59.403Z,12.37
2018-10-21T15:37:38.478Z,11.33
2018-10-21T15:40:14.665Z,11.30
2018-10-21T15:42:49.571Z,12.53
2018-10-21T15:45:24.767Z,10.93
2018-10-21T15:47:59.453Z,13.53
2018-10-21T15:50:36.260Z,13.07
2018-10-21T15:53:11.758Z,13.37
2018-10-21T15:55:47.924Z,11.53
2018-10-21T15:58:22.864Z,12.37
2018-10-21T16:00:57.267Z,11.43
2018-10-21T16:03:31.597Z,11.47
2018-10-21T16:06:06.494Z,13.00
2018-10-21T16:08:40.815Z,11.53
2018-10-21T16:11:15.126Z,11.20
2018-10-21T16:13:49.452Z,11.07
2018-10-21T16:16:23.908Z,11.30
2018-10-21T16:18:58.332Z,12.60
2018-10-21T16:21:34.291Z,12.87
2018-10-21T16:24:08.651Z,12.40
2018-10-21T16:26:43.386Z,11.97
2018-10-21T16:29:17.591Z,13.60
2018-10-21T16:31:53.730Z,10.57
2018-10-21T16:34:28.959Z,17.30
2018-10-21T16:37:03.500Z,14.53
2018-10-21T16:39:39.558Z,14.43
2018-10-21T16:42:14.220Z,14.67
2018-10-21T16:44:48.908Z,16.53
2018-10-21T16:47:23.242Z,14.93
2018-10-21T16:50:00.023Z,16.10
2018-10-21T16:52:35.898Z,17.60
2018-10-21T16:55:12.098Z,17.20
2018-10-21T16:57:46.678Z,13.67
2018-10-21T17:00:21.343Z,14.00
2018-10-21T17:02:55.624Z,14.23
2018-10-21T17:05:30.150Z,13.50
2018-10-21T17:08:06.361Z,14.83
2018-10-21T17:10:40.821Z,14.20
2018-10-21T17:13:15.020Z,16.70
2018-10-21T17:15:49.382Z,15.53
2018-10-21T17:18:24.681Z,15.00
2018-10-21T17:20:59.833Z,16.83
2018-10-21T17:23:34.448Z,19.03
2018-10-21T17:26:08.775Z,15.27
2018-10-21T17:28:43.321Z,17.67
2018-10-21T17:31:17.655Z,14.00
2018-10-21T17:33:52.674Z,18.07
2018-10-21T17:36:27.220Z,15.93
2018-10-21T17:39:01.957Z,14.63
2018-10-21T17:41:36.601Z,17.53
2018-10-21T17:44:11.356Z,18.80
2018-10-21T17:46:45.845Z,18.43
2018-10-21T17:49:21.109Z,18.17
2018-10-21T17:51:55.579Z,17.53
2018-10-21T17:54:29.755Z,16.03
2018-10-21T17:57:04.075Z,15.43
2018-10-21T17:59:38.387Z,15.83
2018-10-21T18:02:12.708Z,18.93
2018-10-21T18:04:47.039Z,18.37
2018-10-21T18:07:21.422Z,21.50
2018-10-21T18:09:56.512Z,18.60
2018-10-21T18:12:30.932Z,18.60
2018-10-21T18:15:06.866Z,22.23
2018-10-21T18:17:42.395Z,20.60
2018-10-21T18:20:16.790Z,22.83
2018-10-21T18:22:51.033Z,21.27
2018-10-21T18:25:26.049Z,22.80
2018-10-21T18:28:00.732Z,19.40
2018-10-21T18:30:34.900Z,17.87
2018-10-21T18:33:10.153Z,24.47
2018-10-21T18:35:44.562Z,20.47
2018-10-21T18:38:20.201Z,20.50
2018-10-21T18:40:54.805Z,16.85
2018-10-21T18:43:29.456Z,20.20
2018-10-21T18:46:03.921Z,22.43
2018-10-21T18:48:38.713Z,26.93
2018-10-21T18:51:13.104Z,23.27
2018-10-21T18:53:47.645Z,40.50
2018-10-21T18:56:22.890Z,30.68
2018-10-21T18:58:57.379Z,32.73
2018-10-21T19:01:31.608Z,23.87
2018-10-21T19:04:06.044Z,19.95
2018-10-21T19:06:40.288Z,21.43
2018-10-21T19:09:14.572Z,22.53
2018-10-21T19:11:49.409Z,27.33
2018-10-21T19:14:23.730Z,23.20
2018-10-21T19:16:58.191Z,21.80
2018-10-21T19:19:32.485Z,22.17
2018-10-21T19:22:07.888Z,25.55
2018-10-21T19:24:42.372Z,23.02
2018-10-21T19:27:16.798Z,22.22
2018-10-21T19:29:51.002Z,25.55
2018-10-21T19:32:28.792Z,23.52
2018-10-21T19:35:03.184Z,23.40
2018-10-21T19:37:39.882Z,25.77
2018-10-21T19:40:15.418Z,26.12
2018-10-21T19:42:51.788Z,24.98
2018-10-21T19:45:26.320Z,25.05
2018-10-21T19:48:00.606Z,28.90
2018-10-21T19:50:35.553Z,24.65
2018-10-21T19:53:11.045Z,25.95
2018-10-21T19:55:46.167Z,30.43
2018-10-21T19:58:20.821Z,28.47
2018-10-21T20:00:56.826Z,32.60
2018-10-21T20:03:31.846Z,32.15
2018-10-21T20:06:07.745Z,28.50
2018-10-21T20:08:42.440Z,30.35
2018-10-21T20:11:17.073Z,29.37
2018-10-21T20:13:51.526Z,31.23
2018-10-21T20:16:26.144Z,25.27
2018-10-21T20:19:00.911Z,25.80
2018-10-21T20:21:35.320Z,30.08
2018-10-21T20:24:09.875Z,27.35
2018-10-21T20:26:45.795Z,32.35
2018-10-21T20:29:21.097Z,27.37
2018-10-21T20:31:55.765Z,28.12
2018-10-21T20:34:30.914Z,27.75
2018-10-21T20:37:06.213Z,31.07
2018-10-21T20:39:41.091Z,30.20
2018-10-21T20:42:15.648Z,28.30
2018-10-21T20:44:50.781Z,26.50
2018-10-21T20:47:25.156Z,29.98
2018-10-21T20:49:59.687Z,28.77
2018-10-21T20:52:34.155Z,25.80
2018-10-21T20:55:10.040Z,27.07
2018-10-21T20:57:44.788Z,26.45
2018-10-21T21:00:21.293Z,27.13
2018-10-21T21:02:57.337Z,27.65
2018-10-21T21:05:32.613Z,30.27
2018-10-21T21:08:17.946Z,30.27
2018-10-21T21:10:54.408Z,29.18
2018-10-21T21:13:33.565Z,25.45
2018-10-21T21:16:08.860Z,26.55
2018-10-21T21:18:43.367Z,25.72
2018-10-21T21:21:17.948Z,25.55
2018-10-21T21:23:52.447Z,26.33
2018-10-21T21:26:26.854Z,30.08
2018-10-21T21:29:02.380Z,34.23
2018-10-21T21:31:37.273Z,30.20
2018-10-21T21:34:14.263Z,28.75
2018-10-21T21:36:49.772Z,29.32
2018-10-21T21:39:25.472Z,30.70
2018-10-21T21:42:00.133Z,27.93
2018-10-21T21:44:34.518Z,29.70
2018-10-21T21:47:17.528Z,30.45
2018-10-21T21:49:56.515Z,26.48
2018-10-21T21:52:31.029Z,29.95
2018-10-21T21:55:06.886Z,26.80
2018-10-21T21:57:41.454Z,24.67
2018-10-21T22:00:16.091Z,23.73
2018-10-21T22:02:50.701Z,25.65
2018-10-21T22:05:25.276Z,26.87
2018-10-21T22:07:59.482Z,26.20
2018-10-21T22:10:34.014Z,25.37
2018-10-21T22:13:08.388Z,24.47
2018-10-21T22:15:42.732Z,23.57
2018-10-21T22:18:17.097Z,25.25
2018-10-21T22:20:51.362Z,24.47
2018-10-21T22:23:25.796Z,23.22
2018-10-21T22:26:00.182Z,24.12
2018-10-21T22:28:34.605Z,23.38
2018-10-21T22:31:08.877Z,24.80
2018-10-21T22:33:43.181Z,23.65
2018-10-21T22:36:17.508Z,24.72
2018-10-21T22:38:51.825Z,23.35
2018-10-21T22:41:26.171Z,35.48
2018-10-21T22:44:00.581Z,22.67
2018-10-21T22:46:34.928Z,26.50
2018-10-21T22:49:09.206Z,23.18
2018-10-21T22:51:44.559Z,25.68
2018-10-21T22:54:18.907Z,31.93
2018-10-21T22:56:53.235Z,22.00
2018-10-21T22:59:27.545Z,24.30
2018-10-21T23:02:01.747Z,24.10
2018-10-21T23:04:36.116Z,24.37
2018-10-21T23:07:10.333Z,21.95
2018-10-21T23:09:44.646Z,23.65
2018-10-21T23:12:19.081Z,23.67
2018-10-21T23:14:53.297Z,23.98
2018-10-21T23:17:27.725Z,24.23
2018-10-21T23:20:02.117Z,25.62
2018-10-21T23:22:36.344Z,23.30
2018-10-21T23:25:10.587Z,24.65
2018-10-21T23:27:44.908Z,24.87
2018-10-21T23:30:19.382Z,26.93
2018-10-21T23:32:53.608Z,26.15
2018-10-21T23:35:27.896Z,23.35
2018-10-21T23:38:02.222Z,26.55
2018-10-21T23:40:36.562Z,25.12
2018-10-21T23:43:10.976Z,23.77
2018-10-21T23:45:45.332Z,23.60
2018-10-21T23:48:19.800Z,23.50
2018-10-21T23:50:54.406Z,22.05
2018-10-21T23:53:28.813Z,21.23
2018-10-21T23:56:03.224Z,21.55
2018-10-21T23:58:37.542Z,20.17
